Startpagina
METAR-TAF:

METAR-TAF

Vliegvelden :

Vliegbasis Chièvres

Chièvres, België

breedte: 50-34N, lengte: 003-50E, hoogte: 60 m

Actueel weer

Dit bericht is 29 minuten geleden gemaakt, om 22:10 UTC
Wind 8 kt uit het westzuidwesten
Temperatuur 17°C
Vochtigheid 94%
Druk 1017 hPa
Zicht 10 km of meer

METAR: EBCV 192210Z AUTO 25008KT 9999 SCT016/// 17/16 Q1017 WHT

Tijdstip: 00:39 (22:39 UTC)

Verwachting

Dit bericht is 6 uur en het 58 minuten geleden gemaakt, om 15:41 UTC
Verwachting geldig van 19 om 19 UTC tot 20 om 07 UTC
Wind 8 kt uit het westen
Zicht 10 km of meer
Verspreide wolken op 5000 ft
Gebroken wolken op 16000 ft
Kans 40% :
Tijdelijke
van 19 om 19 UTC tot 19 om 20 UTC
Zicht: 9000 m
Gebroken wolken op 3500 ft
lichte regenbuien
Wijzigt naar
van 19 om 20 UTC tot 19 om 22 UTC
Weinig wolken op 5000 ft
Verspreide wolken op 23000 ft

TAF: EBCV 191541Z 1919/2007 27008KT 9999 SCT050 BKN160 PROB40 TEMPO 1919/1920 9000 -SHRA BKN035 BECMG 1920/1922 FEW050 SCT230 BY EBWM

Waarnemingen en weersverwachtingen van meer dan 4000 vliegvelden (METAR en TAF).

De beschikbare stations zijn de gele en rode punten op de kaart.

Ga met uw muis naar het station om de naam te zien.

Klik dan om waarnemingen en weersverwachtingen te zien.

kaart wijzigen: klik op de groene knoppen met een zwart kruis om in te zoomen, op de groene knop met een streepje om uit te zoomen of op de groene pijlen voor aangrenzende kaarten.


METAR-TAF: